createdAt,value
2023-04-30T00:01:53.664Z,48.60
2023-04-30T00:04:22.049Z,45.30
2023-04-30T00:06:50.603Z,53.30
2023-04-30T00:09:18.918Z,50.20
2023-04-30T00:11:47.732Z,49.80
2023-04-30T00:14:16.697Z,51.70
2023-04-30T00:16:48.242Z,47.70
2023-04-30T00:19:16.799Z,41.90
2023-04-30T00:21:48.112Z,47.50
2023-04-30T00:24:16.468Z,46.60
2023-04-30T00:26:45.008Z,47.20
2023-04-30T00:29:13.306Z,49.10
2023-04-30T00:31:42.184Z,49.00
2023-04-30T00:34:10.542Z,49.40
2023-04-30T00:36:39.959Z,46.90
2023-04-30T00:39:08.335Z,49.80
2023-04-30T00:41:37.430Z,48.40
2023-04-30T00:44:06.874Z,46.70
2023-04-30T00:46:35.219Z,46.00
2023-04-30T00:49:05.276Z,48.30
2023-04-30T00:51:33.824Z,45.80
2023-04-30T00:54:03.641Z,43.70
2023-04-30T00:56:32.605Z,47.80
2023-04-30T00:59:02.066Z,45.60
2023-04-30T01:01:30.651Z,48.90
2023-04-30T01:04:01.236Z,45.80
2023-04-30T01:06:29.827Z,46.80
2023-04-30T01:08:58.683Z,45.90
2023-04-30T01:11:29.954Z,48.50
2023-04-30T01:14:19.571Z,51.20
2023-04-30T01:16:55.234Z,44.70
2023-04-30T01:19:40.695Z,48.20
2023-04-30T01:22:26.113Z,44.80
2023-04-30T01:25:12.990Z,43.70
2023-04-30T01:28:05.637Z,51.50
2023-04-30T01:30:35.508Z,47.20
2023-04-30T01:33:04.563Z,47.80
2023-04-30T01:35:44.312Z,42.20
2023-04-30T01:38:42.580Z,46.80
2023-04-30T01:41:26.011Z,45.60
2023-04-30T01:44:09.362Z,47.20
2023-04-30T01:46:37.858Z,42.60
2023-04-30T01:49:26.360Z,43.40
2023-04-30T01:52:04.201Z,45.20
2023-04-30T01:54:41.888Z,43.20
2023-04-30T01:57:50.268Z,42.50
2023-04-30T02:00:19.351Z,42.30
2023-04-30T02:02:47.731Z,43.20
2023-04-30T02:05:16.268Z,43.50
2023-04-30T02:07:48.268Z,41.90
2023-04-30T02:10:18.131Z,38.70
2023-04-30T02:12:46.598Z,42.70
2023-04-30T02:15:15.595Z,42.30
2023-04-30T02:17:44.296Z,39.80
2023-04-30T02:20:13.119Z,40.60
2023-04-30T02:22:41.679Z,41.80
2023-04-30T02:25:11.803Z,38.10
2023-04-30T02:27:40.937Z,42.10
2023-04-30T02:30:09.640Z,43.30
2023-04-30T02:32:38.151Z,43.20
2023-04-30T02:35:06.807Z,40.70
2023-04-30T02:37:35.156Z,40.40
2023-04-30T02:40:03.596Z,39.20
2023-04-30T02:42:32.021Z,39.90
2023-04-30T02:45:00.255Z,40.20
2023-04-30T02:47:28.909Z,37.90
2023-04-30T02:49:57.388Z,38.20
2023-04-30T02:52:26.461Z,38.60
2023-04-30T02:54:54.896Z,34.50
2023-04-30T02:57:23.274Z,37.20
2023-04-30T02:59:51.896Z,42.10
2023-04-30T03:02:23.840Z,36.20
2023-04-30T03:04:52.503Z,36.60
2023-04-30T03:07:20.902Z,32.30
2023-04-30T03:09:49.387Z,35.80
2023-04-30T03:12:17.688Z,39.40
2023-04-30T03:14:46.141Z,39.10
2023-04-30T03:17:15.242Z,32.60
2023-04-30T03:19:44.612Z,36.60
2023-04-30T03:22:12.959Z,37.10
2023-04-30T03:24:41.434Z,41.00
2023-04-30T03:27:10.126Z,36.20
2023-04-30T03:29:38.498Z,33.00
2023-04-30T03:32:06.974Z,35.20
2023-04-30T03:34:35.244Z,38.80
2023-04-30T03:37:04.114Z,34.80
2023-04-30T03:39:32.527Z,37.40
2023-04-30T03:42:03.842Z,31.90
2023-04-30T03:44:32.393Z,32.90
2023-04-30T03:47:00.882Z,33.20
2023-04-30T03:49:29.310Z,30.40
2023-04-30T03:51:57.760Z,34.80
2023-04-30T03:54:26.147Z,33.10
2023-04-30T03:56:54.684Z,28.30
2023-04-30T03:59:23.342Z,31.20
2023-04-30T04:01:52.424Z,33.90
2023-04-30T04:04:20.990Z,31.40
2023-04-30T04:06:49.363Z,35.10
2023-04-30T04:09:17.743Z,33.10
2023-04-30T04:11:46.359Z,28.50
2023-04-30T04:14:14.792Z,30.30
2023-04-30T04:16:43.462Z,29.00
2023-04-30T04:19:28.952Z,28.70
2023-04-30T04:21:57.855Z,24.20
2023-04-30T04:24:27.042Z,21.10
2023-04-30T04:26:56.278Z,18.60
2023-04-30T04:29:24.617Z,21.70
2023-04-30T04:31:53.198Z,20.10
2023-04-30T04:34:21.793Z,20.30
2023-04-30T04:36:50.082Z,20.10
2023-04-30T04:39:18.372Z,19.70
2023-04-30T04:41:46.807Z,18.10
2023-04-30T04:44:15.088Z,19.10
2023-04-30T04:46:44.784Z,21.50
2023-04-30T04:49:13.429Z,20.50
2023-04-30T04:51:42.086Z,19.20
2023-04-30T04:54:10.594Z,18.40
2023-04-30T04:56:38.900Z,16.40
2023-04-30T04:59:07.958Z,15.80
2023-04-30T05:01:36.718Z,16.10
2023-04-30T05:04:05.421Z,18.40
2023-04-30T05:06:33.892Z,22.30
2023-04-30T05:09:03.084Z,15.00
2023-04-30T05:11:31.414Z,19.50
2023-04-30T05:13:59.752Z,19.20
2023-04-30T05:16:28.206Z,15.90
2023-04-30T05:18:56.642Z,16.80
2023-04-30T05:21:27.031Z,17.20
2023-04-30T05:23:56.218Z,20.20
2023-04-30T05:26:27.413Z,24.50
2023-04-30T05:28:55.740Z,21.80
2023-04-30T05:31:24.155Z,22.30
2023-04-30T05:33:52.574Z,22.80
2023-04-30T05:36:20.918Z,21.60
2023-04-30T05:38:49.246Z,21.80
2023-04-30T05:41:17.712Z,19.50
2023-04-30T05:43:46.059Z,24.10
2023-04-30T05:46:14.431Z,26.30
2023-04-30T05:48:42.787Z,27.50
2023-04-30T05:51:11.136Z,23.50
2023-04-30T05:53:39.522Z,26.40
2023-04-30T05:56:09.033Z,24.80
2023-04-30T05:58:37.318Z,22.00
2023-04-30T06:01:05.717Z,28.90
2023-04-30T06:03:34.095Z,31.50
2023-04-30T06:06:02.554Z,27.30
2023-04-30T06:08:31.125Z,26.40
2023-04-30T06:10:59.532Z,25.60
2023-04-30T06:13:27.886Z,29.00
2023-04-30T06:15:56.282Z,28.00
2023-04-30T06:18:24.593Z,27.90
2023-04-30T06:21:09.838Z,30.60
2023-04-30T06:23:38.414Z,29.40
2023-04-30T06:26:06.869Z,31.10
2023-04-30T06:28:35.182Z,28.90
2023-04-30T06:31:03.996Z,29.50
2023-04-30T06:33:32.374Z,29.70
2023-04-30T06:36:00.706Z,30.70
2023-04-30T06:38:29.470Z,30.60
2023-04-30T06:40:57.995Z,31.70
2023-04-30T06:43:26.405Z,30.30
2023-04-30T06:45:54.815Z,29.90
2023-04-30T06:48:23.497Z,31.90
2023-04-30T06:50:51.872Z,35.20
2023-04-30T06:53:20.298Z,34.10
2023-04-30T06:55:49.051Z,37.20
2023-04-30T06:58:18.980Z,36.30
2023-04-30T07:00:47.455Z,37.10
2023-04-30T07:03:15.934Z,40.50
2023-04-30T07:05:45.168Z,39.50
2023-04-30T07:08:13.778Z,37.20
2023-04-30T07:10:42.241Z,38.80
2023-04-30T07:13:10.721Z,32.50
2023-04-30T07:15:39.296Z,29.40
2023-04-30T07:18:07.733Z,31.40
2023-04-30T07:20:36.181Z,24.70
2023-04-30T07:23:04.672Z,16.60
2023-04-30T07:25:32.990Z,16.80
2023-04-30T07:28:01.458Z,17.90
2023-04-30T07:30:29.996Z,19.80
2023-04-30T07:32:58.663Z,16.60
2023-04-30T07:35:27.140Z,17.10
2023-04-30T07:37:55.481Z,14.30
2023-04-30T07:40:34.917Z,16.60
2023-04-30T07:43:05.305Z,17.50
2023-04-30T07:45:35.165Z,14.10
2023-04-30T07:48:03.877Z,18.30
2023-04-30T07:50:34.445Z,14.60
2023-04-30T07:55:31.913Z,12.70
2023-04-30T07:58:00.367Z,13.40
2023-04-30T08:00:29.745Z,16.30
2023-04-30T08:02:59.600Z,14.00
2023-04-30T08:05:28.291Z,12.80
2023-04-30T08:07:56.697Z,21.70
2023-04-30T08:10:26.537Z,15.10
2023-04-30T08:12:54.941Z,14.30
2023-04-30T08:15:23.292Z,18.60
2023-04-30T08:17:52.618Z,12.40
2023-04-30T08:20:23.781Z,15.70
2023-04-30T08:22:52.457Z,13.50
2023-04-30T08:25:22.410Z,11.60
2023-04-30T08:27:50.811Z,15.60
2023-04-30T08:30:19.990Z,13.20
2023-04-30T08:32:49.802Z,13.00
2023-04-30T08:35:18.303Z,14.40
2023-04-30T08:37:46.655Z,14.30
2023-04-30T08:40:16.695Z,13.10
2023-04-30T08:42:54.251Z,12.70
2023-04-30T08:45:23.020Z,12.70
2023-04-30T08:47:52.531Z,11.90
2023-04-30T08:50:20.961Z,9.40
2023-04-30T08:52:49.605Z,11.00
2023-04-30T08:55:18.041Z,9.30
2023-04-30T08:57:46.307Z,10.60
2023-04-30T09:00:15.130Z,11.00
2023-04-30T09:02:44.827Z,7.60
2023-04-30T09:05:15.101Z,9.80
2023-04-30T09:08:01.179Z,7.70
2023-04-30T09:10:35.559Z,8.20
2023-04-30T09:13:09.486Z,8.70
2023-04-30T09:15:41.473Z,12.60
2023-04-30T09:18:11.745Z,12.00
2023-04-30T09:20:58.381Z,8.60
2023-04-30T09:23:26.885Z,7.00
2023-04-30T09:25:55.518Z,7.80
2023-04-30T09:28:26.672Z,7.50
2023-04-30T09:30:58.810Z,10.70
2023-04-30T09:33:27.252Z,8.30
2023-04-30T09:35:55.640Z,8.90
2023-04-30T09:38:31.602Z,6.90
2023-04-30T09:41:01.677Z,8.10
2023-04-30T09:43:31.211Z,10.30
2023-04-30T09:46:00.573Z,7.40
2023-04-30T09:48:32.032Z,6.90
2023-04-30T09:51:08.686Z,6.20
2023-04-30T09:53:42.660Z,4.80
2023-04-30T09:56:14.440Z,4.90
2023-04-30T09:58:48.714Z,6.20
2023-04-30T10:01:18.344Z,5.20
2023-04-30T10:03:48.633Z,9.50
2023-04-30T10:06:19.616Z,9.80
2023-04-30T10:08:51.639Z,8.10
2023-04-30T10:11:22.149Z,7.10
2023-04-30T10:16:29.935Z,10.30
2023-04-30T10:23:23.867Z,7.50
2023-04-30T10:25:53.349Z,8.70
2023-04-30T10:28:23.452Z,7.40
2023-04-30T10:30:53.701Z,7.40
2023-04-30T10:34:11.698Z,5.10
2023-04-30T10:36:44.977Z,7.50
2023-04-30T10:39:15.812Z,7.10
2023-04-30T10:41:50.177Z,8.20
2023-04-30T10:44:22.957Z,6.50
2023-04-30T10:47:00.099Z,6.40
2023-04-30T10:53:53.046Z,8.50
2023-04-30T10:56:35.015Z,6.40
2023-04-30T10:59:10.204Z,5.30
2023-04-30T11:01:59.300Z,6.10
2023-04-30T11:04:28.637Z,6.10
2023-04-30T11:07:08.985Z,10.90
2023-04-30T11:09:43.060Z,8.30
2023-04-30T11:12:11.478Z,6.60
2023-04-30T11:14:44.934Z,6.20
2023-04-30T11:17:24.997Z,6.90
2023-04-30T11:19:54.759Z,7.70
2023-04-30T11:22:24.938Z,6.10
2023-04-30T11:24:59.776Z,4.20
2023-04-30T11:27:29.942Z,8.00
2023-04-30T11:29:59.533Z,5.50
2023-04-30T11:32:35.201Z,6.00
2023-04-30T11:35:05.855Z,5.00
2023-04-30T11:40:05.377Z,5.60
2023-04-30T11:42:37.538Z,5.80
2023-04-30T11:45:14.374Z,8.90
2023-04-30T11:47:45.987Z,6.80
2023-04-30T11:50:19.771Z,9.60
2023-04-30T11:52:52.949Z,5.30
2023-04-30T11:55:23.601Z,5.70
2023-04-30T11:57:58.949Z,5.00
2023-04-30T12:00:29.597Z,3.60
2023-04-30T12:03:01.171Z,6.70
2023-04-30T12:05:29.679Z,6.00
2023-04-30T12:08:08.123Z,4.10
2023-04-30T12:10:36.787Z,5.50
2023-04-30T12:13:05.337Z,6.00
2023-04-30T12:15:34.562Z,5.80
2023-04-30T12:18:14.086Z,5.30
2023-04-30T12:20:43.032Z,5.80
2023-04-30T12:23:11.876Z,5.80
2023-04-30T12:25:47.959Z,7.50
2023-04-30T12:28:17.171Z,5.30
2023-04-30T12:30:46.572Z,9.50
2023-04-30T12:33:18.560Z,6.90
2023-04-30T12:35:47.921Z,5.20
2023-04-30T12:38:18.504Z,7.80
2023-04-30T12:40:49.292Z,6.30
2023-04-30T12:43:18.671Z,7.70
2023-04-30T12:45:55.499Z,5.40
2023-04-30T12:48:26.230Z,5.10
2023-04-30T12:50:55.345Z,6.10
2023-04-30T12:53:24.417Z,6.60
2023-04-30T12:56:12.719Z,3.70
2023-04-30T12:58:42.598Z,5.30
2023-04-30T13:01:14.296Z,4.50
2023-04-30T13:03:43.286Z,6.80
2023-04-30T13:06:11.904Z,5.10
2023-04-30T13:08:50.317Z,6.60
2023-04-30T13:11:27.336Z,5.00
2023-04-30T13:13:56.345Z,5.30
2023-04-30T13:16:25.460Z,3.80
2023-04-30T13:18:57.029Z,5.40
2023-04-30T13:21:27.811Z,3.60
2023-04-30T13:23:58.374Z,4.90
2023-04-30T13:26:29.594Z,7.60
2023-04-30T13:29:02.006Z,8.50
2023-04-30T13:31:31.366Z,5.30
2023-04-30T13:33:59.960Z,7.10
2023-04-30T13:36:29.528Z,4.50
2023-04-30T13:38:59.817Z,7.10
2023-04-30T13:41:28.612Z,5.60
2023-04-30T13:43:57.546Z,8.90
2023-04-30T13:46:26.564Z,3.90
2023-04-30T13:48:54.989Z,5.50
2023-04-30T13:51:23.806Z,6.60
2023-04-30T13:53:53.000Z,5.50
2023-04-30T13:56:21.681Z,6.10
2023-04-30T13:58:51.428Z,6.30
2023-04-30T14:01:20.608Z,6.30
2023-04-30T14:03:49.935Z,9.40
2023-04-30T14:06:18.901Z,7.60
2023-04-30T14:08:47.887Z,5.90
2023-04-30T14:11:17.643Z,7.30
2023-04-30T14:13:46.516Z,7.60
2023-04-30T14:16:15.046Z,3.70
2023-04-30T14:18:44.924Z,4.90
2023-04-30T14:21:13.729Z,5.80
2023-04-30T14:23:42.115Z,2.30
2023-04-30T14:26:10.771Z,3.30
2023-04-30T14:28:40.899Z,4.30
2023-04-30T14:31:10.700Z,6.80
2023-04-30T14:33:40.009Z,8.30
2023-04-30T14:36:09.208Z,4.50
2023-04-30T14:38:37.761Z,6.10
2023-04-30T14:41:06.480Z,8.00
2023-04-30T14:43:35.723Z,6.00
2023-04-30T14:46:05.036Z,4.30
2023-04-30T14:48:33.962Z,8.30
2023-04-30T14:51:02.327Z,5.50
2023-04-30T14:53:31.063Z,9.40
2023-04-30T14:56:00.217Z,4.40
2023-04-30T14:58:30.148Z,6.30
2023-04-30T15:00:59.780Z,4.40
2023-04-30T15:03:31.324Z,5.80
2023-04-30T15:06:01.859Z,5.00
2023-04-30T15:08:31.780Z,4.60
2023-04-30T15:11:07.417Z,5.40
2023-04-30T15:13:38.766Z,5.70
2023-04-30T15:16:09.572Z,4.50
2023-04-30T15:18:40.775Z,4.40
2023-04-30T15:23:40.561Z,4.70
2023-04-30T15:26:11.731Z,4.30
2023-04-30T15:28:43.249Z,4.70
2023-04-30T15:31:13.980Z,5.10
2023-04-30T15:33:44.890Z,4.50
2023-04-30T15:36:16.785Z,7.80
2023-04-30T15:38:47.799Z,4.40
2023-04-30T15:41:19.755Z,4.70
2023-04-30T15:43:50.466Z,5.30
2023-04-30T15:46:20.889Z,6.00
2023-04-30T15:48:51.995Z,4.50
2023-04-30T15:51:22.842Z,3.90
2023-04-30T15:53:52.996Z,4.90
2023-04-30T15:56:26.078Z,4.20
2023-04-30T15:58:56.785Z,4.10
